Time;durP1;ratioP1;P1;durP2;ratioP2;P2;SDS_P1;SDS_P2;PMS_P1;PMS_P2;Temp;Humidity;BMP_temperature;BMP_pressure;BME280_temperature;BME280_humidity;BME280_pressure;Samples;Min_cycle;Max_cycle;Signal;HPM_P1;HPM_P2
2022/10/14 00:00:39;;;;;;;1.97;1.97;;;19.20;71.90;;;;;;5087087;27;43484;-73
2022/10/14 00:03:07;;;;;;;2.00;2.00;;;19.10;71.90;;;;;;5086651;28;43933;-74
2022/10/14 00:05:39;;;;;;;1.70;1.70;;;19.10;72.40;;;;;;5082373;28;44699;-73
2022/10/14 00:08:08;;;;;;;2.00;2.00;;;19.10;72.40;;;;;;5086395;28;43492;-74
2022/10/14 00:10:41;;;;;;;2.00;2.00;;;19.20;72.00;;;;;;5085644;28;43441;-73
2022/10/14 00:13:10;;;;;;;2.10;2.10;;;19.30;71.60;;;;;;5085947;27;43678;-73
2022/10/14 00:15:39;;;;;;;1.93;1.93;;;19.40;71.40;;;;;;5086496;28;43457;-73
2022/10/14 00:18:07;;;;;;;1.80;1.80;;;19.40;71.20;;;;;;5081408;28;43447;-75
2022/10/14 00:20:35;;;;;;;2.00;2.00;;;19.40;71.60;;;;;;5086421;27;43478;-73
2022/10/14 00:23:03;;;;;;;1.87;1.87;;;19.40;71.60;;;;;;5086132;27;43602;-74
2022/10/14 00:25:31;;;;;;;2.07;1.97;;;19.40;71.50;;;;;;5084692;28;44686;-75
2022/10/14 00:28:02;;;;;;;1.70;1.70;;;19.30;71.30;;;;;;5085997;27;43413;-72
2022/10/14 00:30:32;;;;;;;1.77;1.77;;;19.30;71.50;;;;;;5086805;28;43402;-74
2022/10/14 00:33:03;;;;;;;1.97;1.90;;;19.20;71.70;;;;;;5085366;28;43983;-74
2022/10/14 00:35:31;;;;;;;1.73;1.73;;;19.20;72.10;;;;;;5085629;28;43452;-73
2022/10/14 00:37:59;;;;;;;2.30;2.30;;;19.20;72.00;;;;;;5119520;27;43430;-75
2022/10/14 00:40:27;;;;;;;1.70;1.70;;;19.20;71.90;;;;;;5084659;28;43439;-73
2022/10/14 00:42:55;;;;;;;1.83;1.83;;;19.20;72.00;;;;;;5086063;27;43598;-74
2022/10/14 00:45:23;;;;;;;1.90;1.90;;;19.10;72.00;;;;;;5085699;28;43441;-73
2022/10/14 00:47:55;;;;;;;1.80;1.80;;;19.10;72.60;;;;;;5084441;28;43576;-74
2022/10/14 00:50:23;;;;;;;1.90;1.90;;;19.10;72.40;;;;;;5088209;27;43478;-73
2022/10/14 00:52:51;;;;;;;1.83;1.83;;;19.10;72.20;;;;;;5087785;28;45720;-75
2022/10/14 00:55:20;;;;;;;1.90;1.90;;;19.10;72.10;;;;;;5089624;27;43403;-73
2022/10/14 00:57:48;;;;;;;2.00;2.00;;;19.10;72.20;;;;;;5089499;27;43389;-75
2022/10/14 01:00:18;;;;;;;1.73;1.73;;;19.10;72.30;;;;;;5091046;27;43482;-72
2022/10/14 01:02:47;;;;;;;2.03;2.03;;;19.10;72.70;;;;;;5104866;27;43760;-73
2022/10/14 01:05:17;;;;;;;1.87;1.87;;;19.20;72.40;;;;;;5105011;27;43417;-72
2022/10/14 01:07:59;;;;;;;2.10;2.10;;;19.30;71.90;;;;;;5103778;28;43327;-73
2022/10/14 01:10:32;;;;;;;1.80;1.80;;;19.50;71.30;;;;;;5104098;27;43421;-73
2022/10/14 01:13:08;;;;;;;2.10;2.10;;;19.60;70.80;;;;;;5103191;28;45591;-73
2022/10/14 01:15:38;;;;;;;1.80;1.80;;;19.60;70.60;;;;;;5104235;28;43405;-72
2022/10/14 01:18:20;;;;;;;1.80;1.80;;;19.60;70.60;;;;;;5105378;27;43470;-72
2022/10/14 01:21:01;;;;;;;1.90;1.90;;;19.50;70.80;;;;;;5102894;28;43535;-72
2022/10/14 01:24:08;;;;;;;1.93;1.93;;;19.40;71.10;;;;;;5103634;28;45676;-72
2022/10/14 01:26:59;;;;;;;2.10;2.10;;;19.30;71.60;;;;;;5104042;28;43357;-72
2022/10/14 01:30:02;;;;;;;1.83;1.83;;;19.30;71.60;;;;;;5103025;28;43476;-72
2022/10/14 01:32:31;;;;;;;1.57;1.57;;;19.20;71.50;;;;;;5043031;28;43491;-72
2022/10/14 01:35:04;;;;;;;1.80;1.80;;;19.20;71.70;;;;;;5089512;28;43861;-73
2022/10/14 01:37:32;;;;;;;2.10;2.10;;;19.20;72.10;;;;;;5103292;27;43414;-72
2022/10/14 01:40:02;;;;;;;2.07;2.07;;;19.20;72.30;;;;;;5102365;28;43403;-72
2022/10/14 01:42:32;;;;;;;1.80;1.80;;;19.20;72.00;;;;;;5102592;28;43576;-73
2022/10/14 01:45:06;;;;;;;1.87;1.87;;;19.10;71.90;;;;;;5103286;28;43858;-72
2022/10/14 01:47:36;;;;;;;1.97;1.97;;;19.10;72.70;;;;;;5098598;28;44896;-73
2022/10/14 01:50:08;;;;;;;2.00;2.00;;;19.10;72.30;;;;;;5102656;28;43486;-71
2022/10/14 01:52:38;;;;;;;1.80;1.80;;;19.10;72.50;;;;;;5104162;27;43411;-73
2022/10/14 01:55:09;;;;;;;2.13;2.13;;;19.20;72.40;;;;;;5101452;27;43586;-72
2022/10/14 01:57:37;;;;;;;1.87;1.87;;;19.30;71.80;;;;;;5135449;27;43411;-72
2022/10/14 02:00:08;;;;;;;2.20;2.20;;;19.50;71.20;;;;;;5102000;28;43414;-73
2022/10/14 02:02:42;;;;;;;1.90;1.90;;;19.50;70.80;;;;;;5101388;28;43585;-72
2022/10/14 02:05:15;;;;;;;2.03;2.03;;;19.50;70.80;;;;;;5101783;28;45698;-73
2022/10/14 02:07:45;;;;;;;1.87;1.87;;;19.50;70.80;;;;;;5102682;28;43413;-72
2022/10/14 02:10:17;;;;;;;1.80;1.80;;;19.40;71.10;;;;;;5102958;27;43401;-72
2022/10/14 02:12:49;;;;;;;1.80;1.80;;;19.30;71.30;;;;;;5104768;28;43434;-72
2022/10/14 02:15:20;;;;;;;1.80;1.80;;;19.30;71.90;;;;;;5101187;28;45748;-72
2022/10/14 02:17:50;;;;;;;1.77;1.77;;;19.20;71.70;;;;;;5101754;28;43347;-73
2022/10/14 02:20:21;;;;;;;1.80;1.80;;;19.20;71.70;;;;;;5105414;27;43449;-72
2022/10/14 02:22:51;;;;;;;1.90;1.90;;;19.20;71.70;;;;;;5103092;27;44027;-73
2022/10/14 02:25:21;;;;;;;1.90;1.90;;;19.20;71.90;;;;;;5102966;28;43775;-73
2022/10/14 02:27:49;;;;;;;2.00;2.00;;;19.10;72.10;;;;;;5102540;28;43406;-74
2022/10/14 02:30:19;;;;;;;1.80;1.80;;;19.10;72.40;;;;;;5102562;28;43401;-73
2022/10/14 02:32:52;;;;;;;1.90;1.90;;;19.20;72.20;;;;;;5102520;27;43434;-73
2022/10/14 02:35:21;;;;;;;2.13;2.13;;;19.30;71.70;;;;;;5103538;27;43923;-73
2022/10/14 02:37:49;;;;;;;1.80;1.80;;;19.40;71.40;;;;;;5103932;28;43444;-73
2022/10/14 02:40:18;;;;;;;2.00;2.00;;;19.40;71.30;;;;;;5102829;27;43484;-72
2022/10/14 02:42:46;;;;;;;1.77;1.77;;;19.30;71.60;;;;;;5103884;27;43430;-73
2022/10/14 02:45:14;;;;;;;1.90;1.90;;;19.30;71.60;;;;;;5103010;28;45792;-72
2022/10/14 02:47:46;;;;;;;1.87;1.87;;;19.30;71.60;;;;;;5102631;28;45049;-73
2022/10/14 02:50:14;;;;;;;2.00;2.00;;;19.30;71.60;;;;;;5102410;27;43443;-73
2022/10/14 02:52:42;;;;;;;1.87;1.87;;;19.20;71.60;;;;;;5102499;27;43457;-73
2022/10/14 02:55:10;;;;;;;2.00;2.00;;;19.20;71.70;;;;;;5102602;28;45702;-72
2022/10/14 02:57:38;;;;;;;1.80;1.80;;;19.20;72.30;;;;;;5102530;28;44987;-73
2022/10/14 03:00:07;;;;;;;1.90;1.90;;;19.20;72.20;;;;;;5101208;28;43452;-72
2022/10/14 03:02:35;;;;;;;2.10;2.10;;;19.20;72.00;;;;;;5100759;27;43526;-72
2022/10/14 03:05:06;;;;;;;2.00;2.00;;;19.10;71.90;;;;;;5101138;28;43950;-73
2022/10/14 03:07:34;;;;;;;1.97;1.97;;;19.10;72.00;;;;;;5101683;28;43315;-73
2022/10/14 03:10:07;;;;;;;1.80;1.80;;;19.10;72.60;;;;;;5102149;28;43399;-73
2022/10/14 03:12:36;;;;;;;1.80;1.80;;;19.10;72.40;;;;;;5102397;27;43509;-72
2022/10/14 03:15:09;;;;;;;2.10;2.10;;;19.10;72.20;;;;;;5101674;27;44054;-72
2022/10/14 03:17:37;;;;;;;1.90;1.90;;;19.10;72.10;;;;;;5101741;28;45078;-73
2022/10/14 03:20:08;;;;;;;1.80;1.80;;;19.10;72.20;;;;;;5102061;28;43953;-72
2022/10/14 03:22:45;;;;;;;1.67;1.67;;;19.10;72.30;;;;;;5103040;27;43457;-72
2022/10/14 03:25:14;;;;;;;1.90;1.90;;;19.10;72.80;;;;;;5102410;28;46013;-72
2022/10/14 03:28:17;;;;;;;2.03;2.03;;;19.10;72.50;;;;;;5086138;28;43535;-72
2022/10/14 03:30:54;;;;;;;2.07;2.07;;;19.30;72.10;;;;;;5101708;28;43366;-72
2022/10/14 03:33:38;;;;;;;1.70;1.70;;;19.40;71.40;;;;;;5098930;28;43523;-72
2022/10/14 03:36:13;;;;;;;2.03;2.03;;;19.60;70.90;;;;;;5100427;28;45319;-73
2022/10/14 03:38:53;;;;;;;1.80;1.80;;;19.60;70.70;;;;;;5100822;28;45030;-73
2022/10/14 03:41:53;;;;;;;1.90;1.90;;;19.50;70.60;;;;;;5090410;27;43526;-72
2022/10/14 03:44:31;;;;;;;1.77;1.77;;;19.40;70.90;;;;;;5101145;28;44038;-72
2022/10/14 03:47:25;;;;;;;1.87;1.87;;;19.40;71.30;;;;;;5096928;28;43800;-72
2022/10/14 03:49:53;;;;;;;2.10;2.10;;;19.30;71.90;;;;;;5100200;28;43403;-72
2022/10/14 03:52:30;;;;;;;1.90;1.90;;;19.30;71.70;;;;;;5094269;28;43441;-72
2022/10/14 03:55:05;;;;;;;2.00;2.00;;;19.30;71.80;;;;;;5098372;28;43420;-72
2022/10/14 03:57:34;;;;;;;2.10;2.10;;;19.20;71.70;;;;;;5094252;28;43993;-72
2022/10/14 04:00:04;;;;;;;2.00;1.90;;;19.20;71.90;;;;;;5098268;28;43430;-72
2022/10/14 04:02:41;;;;;;;1.90;1.90;;;19.10;72.40;;;;;;5095825;27;43378;-72
2022/10/14 04:05:23;;;;;;;1.90;1.90;;;19.10;72.30;;;;;;5098075;28;43553;-73
2022/10/14 04:07:53;;;;;;;1.70;1.70;;;19.20;72.10;;;;;;5094820;28;44027;-72
2022/10/14 04:10:22;;;;;;;1.90;1.90;;;19.10;72.00;;;;;;5089326;28;44363;-72
2022/10/14 04:12:53;;;;;;;1.90;1.90;;;19.10;72.10;;;;;;5094211;28;43446;-73
2022/10/14 04:15:28;;;;;;;1.83;1.83;;;19.10;72.50;;;;;;5097476;28;43387;-72
2022/10/14 04:18:13;;;;;;;1.90;1.90;;;19.10;72.60;;;;;;5096019;28;44073;-72
2022/10/14 04:20:42;;;;;;;1.80;1.80;;;19.20;72.10;;;;;;5096488;28;44345;-72
2022/10/14 04:23:13;;;;;;;1.90;1.90;;;19.40;71.70;;;;;;5096596;28;43411;-72
2022/10/14 04:25:43;;;;;;;1.80;1.80;;;19.50;71.10;;;;;;5101106;27;43410;-72
2022/10/14 04:28:12;;;;;;;2.00;2.00;;;19.60;70.90;;;;;;5100963;28;45522;-72
2022/10/14 04:30:52;;;;;;;1.63;1.63;;;19.60;70.80;;;;;;5100824;28;43568;-73
2022/10/14 04:33:25;;;;;;;1.60;1.60;;;19.50;70.80;;;;;;5098399;28;43470;-73
2022/10/14 04:35:57;;;;;;;1.70;1.70;;;19.40;71.00;;;;;;5102040;28;43494;-72
2022/10/14 04:38:31;;;;;;;1.80;1.80;;;19.40;71.30;;;;;;5101145;28;43822;-73
2022/10/14 04:41:04;;;;;;;1.60;1.60;;;19.30;71.80;;;;;;5100982;28;43381;-73
2022/10/14 04:43:34;;;;;;;1.73;1.73;;;19.30;71.70;;;;;;5099860;28;43469;-72
2022/10/14 04:46:17;;;;;;;1.73;1.73;;;19.30;72.40;;;;;;5102064;28;43524;-72
2022/10/14 04:48:47;;;;;;;1.70;1.70;;;19.20;71.70;;;;;;5100287;28;45497;-72
2022/10/14 04:51:16;;;;;;;1.70;1.70;;;19.20;71.90;;;;;;5101116;27;43397;-72
2022/10/14 04:53:50;;;;;;;1.93;1.90;;;19.20;72.30;;;;;;5101700;28;43454;-73
2022/10/14 04:56:37;;;;;;;1.60;1.60;;;19.20;72.10;;;;;;5100331;28;43395;-72
2022/10/14 04:59:05;;;;;;;2.00;2.00;;;19.20;72.00;;;;;;5100564;28;45587;-72
2022/10/14 05:01:55;;;;;;;1.57;1.57;;;19.20;72.00;;;;;;5098017;28;45052;-72
2022/10/14 05:04:31;;;;;;;2.17;2.07;;;19.10;72.10;;;;;;5118942;27;43417;-72
2022/10/14 05:07:00;;;;;;;1.97;1.97;;;19.10;72.60;;;;;;5100597;28;43615;-72
2022/10/14 05:09:30;;;;;;;1.90;1.90;;;19.20;72.40;;;;;;5101332;28;43980;-72
2022/10/14 05:11:58;;;;;;;1.80;1.80;;;19.30;72.00;;;;;;5102336;27;43446;-72
2022/10/14 05:14:37;;;;;;;1.90;1.90;;;19.50;71.40;;;;;;5098204;28;43525;-72
2022/10/14 05:17:31;;;;;;;1.80;1.80;;;19.60;71.10;;;;;;5100070;27;43433;-72
2022/10/14 05:20:00;;;;;;;1.70;1.70;;;19.60;70.90;;;;;;5100984;28;45648;-72
2022/10/14 05:22:29;;;;;;;1.70;1.70;;;19.50;71.70;;;;;;5100812;28;43759;-73
2022/10/14 05:24:58;;;;;;;1.60;1.60;;;19.40;71.10;;;;;;5100711;27;43377;-72
2022/10/14 05:27:27;;;;;;;1.83;1.83;;;19.40;71.50;;;;;;5100545;28;43945;-72
2022/10/14 05:29:55;;;;;;;2.10;2.10;;;19.30;72.00;;;;;;5098497;28;43648;-71
2022/10/14 05:32:23;;;;;;;1.70;1.70;;;19.30;71.90;;;;;;5100271;28;44548;-73
2022/10/14 05:34:55;;;;;;;1.50;1.50;;;19.30;71.80;;;;;;5101503;27;43454;-72
2022/10/14 05:37:29;;;;;;;1.57;1.47;;;19.20;71.70;;;;;;5099573;28;43482;-73
2022/10/14 05:39:58;;;;;;;1.67;1.67;;;19.20;71.90;;;;;;5101764;28;43914;-72
2022/10/14 05:42:27;;;;;;;1.73;1.73;;;19.20;72.40;;;;;;5100556;28;44391;-72
2022/10/14 05:44:57;;;;;;;1.80;1.80;;;19.20;72.50;;;;;;5099107;28;43438;-72
2022/10/14 05:47:28;;;;;;;1.70;1.70;;;19.30;72.20;;;;;;5097258;28;43410;-73
2022/10/14 05:50:02;;;;;;;2.10;2.00;;;19.40;71.80;;;;;;5100152;28;44034;-72
2022/10/14 05:52:31;;;;;;;1.80;1.80;;;19.40;71.50;;;;;;5101802;27;43479;-72
2022/10/14 05:55:09;;;;;;;1.73;1.73;;;19.40;71.40;;;;;;5095972;28;43442;-72
2022/10/14 05:57:37;;;;;;;1.80;1.80;;;19.40;71.70;;;;;;5101551;28;43600;-72
2022/10/14 06:00:07;;;;;;;1.87;1.87;;;19.40;72.40;;;;;;5100957;28;43872;-72
2022/10/14 06:02:43;;;;;;;1.67;1.67;;;19.40;71.60;;;;;;5097833;28;44026;-72
2022/10/14 06:05:16;;;;;;;1.67;1.67;;;19.30;71.50;;;;;;5100136;28;43355;-72
2022/10/14 06:07:44;;;;;;;1.67;1.67;;;19.30;71.70;;;;;;5101001;28;44029;-72
2022/10/14 06:10:13;;;;;;;1.83;1.83;;;19.20;72.20;;;;;;5100633;28;45551;-72
2022/10/14 06:12:41;;;;;;;1.70;1.70;;;19.20;72.10;;;;;;5101552;28;43355;-72
2022/10/14 06:15:10;;;;;;;1.60;1.60;;;19.20;71.90;;;;;;5099890;28;43416;-73
2022/10/14 06:17:38;;;;;;;1.67;1.67;;;19.20;71.90;;;;;;5100392;28;43565;-73
2022/10/14 06:20:07;;;;;;;1.50;1.50;;;19.20;72.00;;;;;;5100055;28;45724;-72
2022/10/14 06:22:35;;;;;;;1.70;1.70;;;19.10;72.30;;;;;;5101099;28;44054;-72
2022/10/14 06:25:03;;;;;;;1.80;1.80;;;19.20;72.70;;;;;;5101675;28;43372;-72
2022/10/14 06:27:32;;;;;;;1.80;1.80;;;19.20;72.30;;;;;;5101216;28;43467;-72
2022/10/14 06:30:00;;;;;;;1.80;1.80;;;19.40;71.80;;;;;;5101792;28;44021;-73
2022/10/14 06:32:28;;;;;;;1.77;1.77;;;19.50;71.30;;;;;;5100957;28;43417;-73
2022/10/14 06:34:57;;;;;;;2.13;2.03;;;19.60;71.00;;;;;;5101094;27;44456;-72
2022/10/14 06:37:25;;;;;;;1.67;1.67;;;19.60;70.90;;;;;;5101221;27;44006;-72
2022/10/14 06:39:52;;;;;;;1.60;1.60;;;19.50;70.90;;;;;;5099207;27;45227;-72
2022/10/14 06:42:21;;;;;;;1.70;1.70;;;19.40;71.10;;;;;;5098523;28;43492;-72
2022/10/14 06:44:51;;;;;;;1.70;1.70;;;19.40;71.40;;;;;;5099410;28;43439;-73
2022/10/14 06:47:19;;;;;;;1.50;1.50;;;19.30;71.90;;;;;;5100308;28;43620;-73
2022/10/14 06:49:47;;;;;;;1.80;1.80;;;19.30;71.90;;;;;;5099387;28;45382;-72
2022/10/14 06:52:15;;;;;;;1.57;1.57;;;19.30;71.90;;;;;;5099211;28;45090;-72
2022/10/14 06:54:43;;;;;;;1.57;1.57;;;19.20;71.80;;;;;;5101525;28;43449;-72
2022/10/14 06:57:15;;;;;;;1.60;1.60;;;19.20;71.90;;;;;;5101104;27;43423;-72
2022/10/14 06:59:43;;;;;;;1.63;1.63;;;19.20;72.10;;;;;;5097965;27;44023;-73
2022/10/14 07:02:13;;;;;;;1.60;1.60;;;19.20;72.50;;;;;;5096207;28;44385;-72
2022/10/14 07:04:41;;;;;;;1.40;1.40;;;19.20;72.30;;;;;;5090807;28;43437;-74
2022/10/14 07:07:09;;;;;;;1.60;1.60;;;19.20;72.10;;;;;;5097645;27;43959;-72
2022/10/14 07:09:37;;;;;;;1.57;1.57;;;19.10;72.20;;;;;;5096473;27;44030;-73
2022/10/14 07:12:05;;;;;;;1.60;1.60;;;19.10;72.30;;;;;;5098189;27;43378;-73
2022/10/14 07:14:32;;;;;;;1.80;1.80;;;19.10;72.70;;;;;;5097778;27;44037;-71
2022/10/14 07:17:00;;;;;;;1.60;1.60;;;19.20;72.60;;;;;;5098649;27;43377;-72
2022/10/14 07:19:30;;;;;;;1.80;1.80;;;19.30;72.20;;;;;;5089881;28;43839;-73
2022/10/14 07:21:57;;;;;;;1.60;1.60;;;19.40;71.70;;;;;;5094365;28;44789;-73
2022/10/14 07:24:25;;;;;;;1.80;1.80;;;19.60;71.20;;;;;;5096747;27;43465;-72
2022/10/14 07:26:53;;;;;;;1.50;1.50;;;19.60;70.90;;;;;;5096135;28;43445;-72
2022/10/14 07:29:21;;;;;;;1.67;1.67;;;19.60;70.90;;;;;;5093876;28;43693;-72
2022/10/14 07:31:49;;;;;;;1.60;1.60;;;19.50;71.00;;;;;;5100378;28;43358;-72
2022/10/14 07:34:17;;;;;;;1.57;1.57;;;19.40;71.20;;;;;;5101440;27;43386;-71
2022/10/14 07:36:46;;;;;;;1.80;1.70;;;19.40;71.40;;;;;;5096342;28;43492;-72
2022/10/14 07:39:14;;;;;;;1.63;1.63;;;19.30;72.00;;;;;;5099262;28;46229;-73
2022/10/14 07:41:42;;;;;;;1.60;1.60;;;19.30;71.90;;;;;;5099621;28;43338;-73
2022/10/14 07:44:12;;;;;;;1.60;1.60;;;19.30;71.90;;;;;;5095334;28;43403;-72
2022/10/14 07:46:42;;;;;;;1.63;1.63;;;19.20;71.70;;;;;;5098389;28;43457;-72
2022/10/14 07:49:11;;;;;;;1.80;1.60;;;19.20;71.90;;;;;;5099427;27;43807;-72
2022/10/14 07:51:39;;;;;;;2.30;2.10;;;19.20;72.20;;;;;;5097229;27;43438;-71
2022/10/14 07:54:10;;;;;;;4.40;1.90;;;19.20;72.40;;;;;;5099074;28;43386;-72
2022/10/14 07:56:39;;;;;;;4.17;1.80;;;19.20;72.00;;;;;;5098915;28;43463;-71
2022/10/14 07:59:07;;;;;;;1.63;1.63;;;19.20;71.90;;;;;;5099252;27;43598;-72
2022/10/14 08:01:36;;;;;;;2.10;2.00;;;19.20;72.00;;;;;;5099535;27;43453;-72
2022/10/14 08:04:04;;;;;;;1.90;1.90;;;19.10;72.00;;;;;;5099275;28;44013;-72
2022/10/14 08:06:32;;;;;;;2.37;2.00;;;19.10;72.60;;;;;;5100553;27;43557;-72
2022/10/14 08:09:00;;;;;;;1.67;1.67;;;19.20;72.50;;;;;;5099291;27;43673;-73
2022/10/14 08:11:29;;;;;;;2.00;1.77;;;19.30;72.10;;;;;;5097383;28;44473;-73
2022/10/14 08:13:58;;;;;;;1.63;1.53;;;19.50;72.30;;;;;;5100271;27;43409;-73
2022/10/14 08:16:26;;;;;;;3.70;1.93;;;19.60;71.10;;;;;;5099932;27;43521;-72
2022/10/14 08:18:57;;;;;;;1.93;1.67;;;19.60;70.80;;;;;;5098011;28;45660;-73
2022/10/14 08:21:25;;;;;;;1.50;1.50;;;19.60;70.80;;;;;;5098832;27;43338;-72
2022/10/14 08:23:53;;;;;;;1.60;1.60;;;19.50;70.90;;;;;;5099107;27;43453;-72
2022/10/14 08:26:22;;;;;;;1.73;1.63;;;19.40;71.10;;;;;;5099755;27;43406;-72
2022/10/14 08:28:51;;;;;;;1.90;1.80;;;19.40;71.60;;;;;;5098660;27;43614;-72
2022/10/14 08:31:19;;;;;;;1.97;1.80;;;19.30;71.90;;;;;;5098086;28;44661;-73
2022/10/14 08:33:47;;;;;;;1.73;1.73;;;19.30;71.80;;;;;;5098603;28;43441;-72
2022/10/14 08:36:17;;;;;;;1.70;1.70;;;19.30;71.90;;;;;;5096248;28;43552;-72
2022/10/14 08:38:45;;;;;;;1.73;1.73;;;19.20;71.80;;;;;;5097378;27;43815;-72
2022/10/14 08:41:33;;;;;;;1.60;1.60;;;19.20;72.00;;;;;;5097068;27;44341;-72
2022/10/14 08:44:09;;;;;;;1.80;1.80;;;19.20;72.50;;;;;;5098643;27;43433;-72
2022/10/14 08:46:39;;;;;;;1.77;1.77;;;19.20;72.40;;;;;;5092698;28;43410;-72
2022/10/14 08:49:12;;;;;;;1.90;1.90;;;19.20;72.20;;;;;;5112744;27;45375;-72
2022/10/14 08:51:40;;;;;;;1.43;1.43;;;19.20;72.20;;;;;;5095486;28;44947;-72
2022/10/14 08:54:11;;;;;;;2.00;1.90;;;19.10;72.20;;;;;;5098215;27;43417;-72
2022/10/14 08:56:39;;;;;;;1.80;1.80;;;19.10;72.60;;;;;;5098667;27;44011;-72
2022/10/14 08:59:12;;;;;;;1.70;1.70;;;19.10;72.70;;;;;;5098695;27;43876;-73
2022/10/14 09:01:44;;;;;;;1.73;1.73;;;19.20;72.30;;;;;;5098225;27;43413;-72
2022/10/14 09:04:13;;;;;;;1.57;1.57;;;19.40;71.90;;;;;;5098393;27;43453;-73
2022/10/14 09:06:42;;;;;;;1.53;1.53;;;19.50;71.20;;;;;;5097189;28;43858;-72
2022/10/14 09:09:12;;;;;;;1.57;1.47;;;19.60;70.90;;;;;;5098898;28;43909;-73
2022/10/14 09:11:42;;;;;;;1.50;1.50;;;19.60;70.90;;;;;;5099068;27;43396;-73
2022/10/14 09:14:13;;;;;;;1.60;1.60;;;19.50;70.80;;;;;;5102118;27;43379;-72
2022/10/14 09:16:44;;;;;;;1.40;1.40;;;19.50;71.10;;;;;;5100889;28;43437;-72
2022/10/14 09:19:18;;;;;;;1.60;1.60;;;19.40;71.40;;;;;;5103227;27;43759;-72
2022/10/14 09:21:47;;;;;;;1.60;1.60;;;19.30;71.90;;;;;;5102197;27;43691;-71
2022/10/14 09:24:20;;;;;;;1.50;1.50;;;19.30;71.90;;;;;;5099018;28;43344;-73
2022/10/14 09:26:49;;;;;;;1.50;1.50;;;19.30;71.80;;;;;;5102546;27;43449;-73
2022/10/14 09:29:24;;;;;;;1.70;1.70;;;19.20;71.80;;;;;;5101930;27;43631;-72
2022/10/14 09:31:52;;;;;;;1.40;1.40;;;19.20;72.00;;;;;;5093913;28;44990;-73
2022/10/14 09:34:23;;;;;;;1.80;1.70;;;19.20;72.50;;;;;;5101124;27;43454;-72
2022/10/14 09:36:51;;;;;;;1.60;1.60;;;19.20;72.40;;;;;;5099821;27;43530;-73
2022/10/14 09:39:24;;;;;;;1.50;1.50;;;19.20;72.30;;;;;;5101197;27;44030;-72
2022/10/14 09:41:52;;;;;;;1.50;1.50;;;19.20;72.20;;;;;;5099758;28;44724;-73
2022/10/14 09:44:24;;;;;;;1.30;1.30;;;19.10;72.20;;;;;;5100849;28;43420;-73
2022/10/14 09:46:53;;;;;;;1.53;1.53;;;19.10;72.60;;;;;;5100308;27;43393;-72
2022/10/14 09:49:27;;;;;;;1.40;1.40;;;19.10;72.70;;;;;;5094479;28;44290;-73
2022/10/14 09:51:56;;;;;;;1.70;1.70;;;19.20;72.50;;;;;;5099713;27;43392;-73
2022/10/14 09:54:26;;;;;;;1.40;1.40;;;19.40;72.00;;;;;;5095438;28;43665;-71
2022/10/14 09:57:04;;;;;;;1.50;1.50;;;19.50;71.40;;;;;;5099716;27;43385;-72
2022/10/14 09:59:34;;;;;;;1.50;1.50;;;19.60;71.10;;;;;;5097877;28;45569;-73
2022/10/14 10:02:02;;;;;;;1.60;1.60;;;19.60;70.90;;;;;;5097523;28;44703;-71
2022/10/14 10:04:35;;;;;;;1.60;1.47;;;19.50;71.00;;;;;;5100021;28;43406;-72
2022/10/14 10:07:05;;;;;;;1.50;1.50;;;19.40;71.20;;;;;;5100090;28;43435;-72
2022/10/14 10:09:33;;;;;;;1.50;1.50;;;19.40;71.70;;;;;;5100683;27;43934;-71
2022/10/14 10:12:08;;;;;;;1.53;1.53;;;19.30;71.90;;;;;;5100409;28;43429;-72
2022/10/14 10:14:38;;;;;;;1.43;1.43;;;19.30;71.50;;;;;;5092819;28;43391;-72
2022/10/14 10:17:13;;;;;;;1.50;1.50;;;19.30;71.80;;;;;;5102785;27;43442;-72
2022/10/14 10:19:42;;;;;;;1.60;1.60;;;19.30;71.90;;;;;;5102945;27;43843;-72
2022/10/14 10:22:21;;;;;;;1.50;1.50;;;19.20;72.00;;;;;;5101085;27;43570;-72
2022/10/14 10:24:51;;;;;;;1.33;1.33;;;19.20;72.50;;;;;;5101944;27;43397;-72
2022/10/14 10:27:24;;;;;;;1.50;1.50;;;19.20;72.20;;;;;;5100463;28;43928;-72
2022/10/14 10:29:55;;;;;;;1.50;1.50;;;19.20;72.10;;;;;;5102137;27;43871;-73
2022/10/14 10:32:28;;;;;;;1.20;1.20;;;19.20;72.20;;;;;;5103625;27;43481;-72
2022/10/14 10:35:20;;;;;;;1.57;1.57;;;19.20;72.30;;;;;;5103780;27;43500;-73
2022/10/14 10:37:55;;;;;;;1.40;1.40;;;19.10;72.70;;;;;;5099744;28;43714;-72
2022/10/14 10:40:34;;;;;;;1.37;1.37;;;19.20;72.60;;;;;;5102027;27;43612;-72
2022/10/14 10:43:18;;;;;;;1.50;1.50;;;19.40;72.20;;;;;;5099556;28;44413;-73
2022/10/14 10:45:55;;;;;;;1.57;1.57;;;19.50;71.60;;;;;;5097341;28;43907;-73
2022/10/14 10:48:25;;;;;;;1.47;1.47;;;19.60;71.10;;;;;;5097616;28;43355;-72
2022/10/14 10:50:56;;;;;;;1.50;1.50;;;19.70;71.00;;;;;;5101064;27;43861;-72
2022/10/14 10:53:32;;;;;;;1.20;1.20;;;19.60;70.90;;;;;;5102060;27;43419;-72
2022/10/14 10:56:07;;;;;;;1.50;1.50;;;19.50;71.10;;;;;;5102644;28;43462;-72
2022/10/14 10:58:41;;;;;;;1.60;1.60;;;19.40;71.40;;;;;;5103723;27;43499;-72
2022/10/14 11:01:16;;;;;;;1.30;1.30;;;19.40;71.90;;;;;;5101587;28;46110;-72
2022/10/14 11:03:52;;;;;;;1.30;1.30;;;19.40;72.00;;;;;;5103248;27;43432;-72
2022/10/14 11:12:06;;;;;;;1.60;1.60;;;19.20;72.00;;;;;;5115798;27;45268;-72
2022/10/14 11:14:50;;;;;;;1.30;1.30;;;19.20;72.50;;;;;;5096355;28;43441;-72
2022/10/14 11:17:22;;;;;;;1.30;1.30;;;19.20;72.30;;;;;;5102785;28;43381;-73
2022/10/14 11:19:53;;;;;;;1.30;1.30;;;19.20;72.10;;;;;;5102918;28;43440;-74
2022/10/14 11:22:38;;;;;;;1.30;1.30;;;19.20;72.10;;;;;;5102941;28;44111;-72
2022/10/14 11:25:09;;;;;;;1.20;1.20;;;19.20;72.30;;;;;;5101808;28;43401;-72
2022/10/14 11:27:40;;;;;;;1.30;1.30;;;19.10;72.60;;;;;;5103967;28;43431;-72
2022/10/14 11:30:15;;;;;;;1.33;1.23;;;19.20;72.70;;;;;;5103022;27;43568;-72
2022/10/14 11:32:52;;;;;;;1.50;1.50;;;19.30;72.50;;;;;;5101944;27;43835;-72
2022/10/14 11:35:25;;;;;;;1.30;1.30;;;19.40;72.00;;;;;;5097192;28;44610;-74
2022/10/14 11:38:00;;;;;;;1.40;1.40;;;19.60;71.40;;;;;;5099556;27;43390;-72
2022/10/14 11:40:32;;;;;;;1.30;1.30;;;19.60;71.00;;;;;;5101963;27;43656;-73
2022/10/14 11:43:08;;;;;;;1.40;1.40;;;19.60;70.90;;;;;;5101657;27;43642;-72
2022/10/14 11:45:46;;;;;;;1.10;1.10;;;19.60;71.00;;;;;;5101484;28;43354;-72
2022/10/14 11:48:27;;;;;;;1.30;1.30;;;19.50;71.20;;;;;;5101257;28;43433;-72
2022/10/14 11:50:57;;;;;;;1.37;1.37;;;19.40;71.50;;;;;;5099429;27;43398;-73
2022/10/14 11:53:29;;;;;;;1.40;1.40;;;19.40;72.10;;;;;;5100583;28;43933;-72
2022/10/14 11:56:00;;;;;;;1.13;1.13;;;19.30;71.90;;;;;;5100042;28;43327;-72
2022/10/14 11:58:28;;;;;;;1.30;1.30;;;19.30;71.80;;;;;;5101395;27;43449;-72
2022/10/14 12:01:15;;;;;;;1.20;1.20;;;19.30;71.90;;;;;;5101077;27;43373;-72
2022/10/14 12:03:48;;;;;;;1.20;1.20;;;19.20;72.00;;;;;;5100595;28;44049;-72
2022/10/14 12:06:17;;;;;;;1.17;1.17;;;19.20;72.60;;;;;;5100887;27;43377;-72
2022/10/14 12:08:49;;;;;;;1.13;1.13;;;19.20;73.20;;;;;;5100187;28;43452;-71
2022/10/14 12:11:23;;;;;;;1.17;1.17;;;19.20;72.20;;;;;;5100184;27;43412;-73
2022/10/14 12:13:54;;;;;;;1.30;1.30;;;19.20;72.20;;;;;;5094105;28;43862;-72
2022/10/14 12:16:23;;;;;;;1.30;1.30;;;19.20;72.30;;;;;;5098388;27;43444;-73
2022/10/14 12:18:54;;;;;;;1.20;1.20;;;19.10;72.50;;;;;;5099787;28;43913;-72
2022/10/14 12:21:29;;;;;;;1.20;1.20;;;19.20;72.90;;;;;;5100938;28;43545;-71
2022/10/14 12:23:58;;;;;;;1.30;1.30;;;19.20;72.50;;;;;;5101938;27;43602;-72
2022/10/14 12:26:42;;;;;;;1.30;1.30;;;19.40;72.10;;;;;;5101657;28;43852;-72
2022/10/14 12:29:11;;;;;;;1.20;1.20;;;19.50;71.40;;;;;;5102205;28;43425;-72
2022/10/14 12:31:39;;;;;;;1.10;1.10;;;19.60;71.00;;;;;;5098729;28;43506;-72
2022/10/14 12:34:33;;;;;;;1.13;1.13;;;19.60;71.00;;;;;;5100647;28;43905;-72
2022/10/14 12:37:50;;;;;;;1.10;1.10;;;19.60;71.10;;;;;;5082885;28;44952;-73
2022/10/14 12:40:28;;;;;;;1.20;1.20;;;19.50;71.20;;;;;;5097162;28;43447;-72
2022/10/14 12:43:19;;;;;;;1.20;1.20;;;19.40;71.70;;;;;;5098192;28;43387;-72
2022/10/14 12:46:01;;;;;;;1.03;1.03;;;19.40;72.10;;;;;;5094124;27;44107;-72
2022/10/14 12:48:31;;;;;;;1.20;1.20;;;19.30;71.90;;;;;;5096799;28;45028;-72
2022/10/14 12:51:08;;;;;;;1.17;1.17;;;19.30;72.00;;;;;;5101783;27;43453;-72
2022/10/14 12:53:36;;;;;;;1.10;1.10;;;19.20;72.00;;;;;;5102490;27;43414;-73
2022/10/14 12:56:04;;;;;;;1.20;1.20;;;19.20;72.90;;;;;;5099841;28;45362;-72
2022/10/14 12:58:34;;;;;;;1.00;1.00;;;19.20;72.30;;;;;;5101714;27;43434;-72
2022/10/14 13:01:03;;;;;;;1.20;1.20;;;19.20;72.40;;;;;;5102473;27;43403;-73
2022/10/14 13:03:33;;;;;;;1.10;1.10;;;19.10;72.40;;;;;;5100480;28;43472;-72
2022/10/14 13:06:28;;;;;;;1.20;1.20;;;19.10;72.60;;;;;;5101825;28;43894;-72
2022/10/14 13:09:39;;;;;;;1.20;1.20;;;19.10;72.70;;;;;;5096544;28;43313;-72
2022/10/14 13:12:42;;;;;;;1.10;1.10;;;19.10;72.70;;;;;;5097548;28;43392;-72
2022/10/14 13:15:33;;;;;;;1.10;1.10;;;19.10;73.40;;;;;;5103277;27;43509;-72
2022/10/14 13:18:23;;;;;;;1.07;1.07;;;19.20;72.90;;;;;;5102865;28;43883;-73
2022/10/14 13:20:51;;;;;;;1.27;1.27;;;19.40;72.10;;;;;;5101861;27;43476;-73